Time;durP1;ratioP1;P1;durP2;ratioP2;P2;SDS_P1;SDS_P2;PMS_P1;PMS_P2;Temp;Humidity;BMP_temperature;BMP_pressure;BME280_temperature;BME280_humidity;BME280_pressure;Samples;Min_cycle;Max_cycle;Signal;HPM_P1;HPM_P2
2023/09/06 00:00:43;;;;;;;0.50;0.30;;;18.70;99.90;;;;;;5052461;28;20484;-80
2023/09/06 00:03:10;;;;;;;0.50;0.40;;;18.70;99.90;;;;;;5052681;28;20513;-81
2023/09/06 00:05:41;;;;;;;0.50;0.30;;;18.70;99.90;;;;;;5049851;28;20443;-80
2023/09/06 00:08:08;;;;;;;0.50;0.30;;;18.70;99.90;;;;;;5047550;28;20448;-80
2023/09/06 00:10:38;;;;;;;0.50;0.30;;;18.60;99.90;;;;;;5047353;28;20918;-81
2023/09/06 00:13:07;;;;;;;0.50;0.30;;;18.60;99.90;;;;;;5055059;28;20850;-81
2023/09/06 00:15:34;;;;;;;0.50;0.30;;;18.50;99.90;;;;;;5047063;28;21002;-81
2023/09/06 00:18:03;;;;;;;0.50;0.30;;;18.50;99.90;;;;;;5054523;28;20527;-81
2023/09/06 00:20:30;;;;;;;0.50;0.30;;;18.50;99.90;;;;;;5050855;28;20480;-80
2023/09/06 00:22:58;;;;;;;0.50;0.30;;;18.40;99.90;;;;;;5042836;28;20467;-81
2023/09/06 00:25:26;;;;;;;0.50;0.30;;;18.40;99.90;;;;;;5038926;28;20440;-81
2023/09/06 00:27:54;;;;;;;0.50;0.30;;;18.40;99.90;;;;;;5055173;28;20442;-81
2023/09/06 00:30:23;;;;;;;0.50;0.30;;;18.40;99.90;;;;;;5046609;28;20428;-81
2023/09/06 00:32:52;;;;;;;0.50;0.30;;;18.40;99.90;;;;;;5054411;28;20460;-79
2023/09/06 00:35:19;;;;;;;0.50;0.40;;;18.30;99.90;;;;;;5045701;28;20450;-81
2023/09/06 00:37:46;;;;;;;0.50;0.30;;;18.30;99.90;;;;;;5045989;28;20458;-80
2023/09/06 00:40:16;;;;;;;0.50;0.30;;;18.30;99.90;;;;;;5054430;28;20557;-81
2023/09/06 00:42:45;;;;;;;0.50;0.40;;;18.30;99.90;;;;;;5054950;28;20526;-80
2023/09/06 00:45:12;;;;;;;0.50;0.30;;;18.30;99.90;;;;;;5052835;28;20443;-81
2023/09/06 00:47:42;;;;;;;0.50;0.40;;;18.30;99.90;;;;;;5043387;28;20503;-81
2023/09/06 00:50:10;;;;;;;0.50;0.30;;;18.20;99.90;;;;;;5043445;28;20440;-80
2023/09/06 00:52:37;;;;;;;0.50;0.30;;;18.20;99.90;;;;;;5054349;28;20463;-80
2023/09/06 00:55:05;;;;;;;0.50;0.30;;;18.20;99.90;;;;;;5053899;28;20489;-80
2023/09/06 00:57:32;;;;;;;0.50;0.40;;;18.20;99.90;;;;;;5050356;28;20466;-80
2023/09/06 01:00:01;;;;;;;0.50;0.30;;;18.20;99.90;;;;;;5050810;28;20506;-81
2023/09/06 01:02:27;;;;;;;0.50;0.30;;;18.20;99.90;;;;;;5054141;28;20463;-79
2023/09/06 01:04:56;;;;;;;0.50;0.30;;;18.10;99.90;;;;;;5053894;28;20447;-80
2023/09/06 01:07:28;;;;;;;0.50;0.40;;;18.10;99.90;;;;;;5053969;28;20447;-81
2023/09/06 01:09:54;;;;;;;0.50;0.30;;;18.00;99.90;;;;;;5047289;28;20543;-80
2023/09/06 01:12:21;;;;;;;0.50;0.30;;;18.00;99.90;;;;;;5052710;28;20475;-80
2023/09/06 01:14:48;;;;;;;0.50;0.30;;;18.00;99.90;;;;;;5054100;28;20439;-80
2023/09/06 01:17:18;;;;;;;0.50;0.30;;;18.00;99.90;;;;;;5051996;28;20447;-81
2023/09/06 01:19:52;;;;;;;0.50;0.40;;;18.00;99.90;;;;;;5042791;28;20851;-81
2023/09/06 01:22:27;;;;;;;0.50;0.30;;;17.90;99.90;;;;;;5044053;28;20471;-80
2023/09/06 01:24:56;;;;;;;0.50;0.40;;;17.90;99.90;;;;;;5038853;28;20453;-81
2023/09/06 01:27:23;;;;;;;0.50;0.30;;;17.90;99.90;;;;;;5052904;28;20442;-81
2023/09/06 01:29:50;;;;;;;0.50;0.30;;;17.90;99.90;;;;;;5047826;28;20443;-80
2023/09/06 01:32:17;;;;;;;0.50;0.30;;;17.90;99.90;;;;;;5050178;28;20464;-81
2023/09/06 01:34:44;;;;;;;0.50;0.40;;;17.90;99.90;;;;;;5041854;28;20437;-78
2023/09/06 01:37:11;;;;;;;0.50;0.30;;;17.80;99.90;;;;;;5050226;28;20454;-81
2023/09/06 01:39:37;;;;;;;0.50;0.40;;;17.80;99.90;;;;;;5046560;28;20479;-80
2023/09/06 01:42:06;;;;;;;0.50;0.30;;;17.80;99.90;;;;;;5045828;28;20478;-81
2023/09/06 01:44:32;;;;;;;0.50;0.30;;;17.80;99.90;;;;;;5034375;28;20436;-81
2023/09/06 01:46:59;;;;;;;0.50;0.40;;;17.70;99.90;;;;;;5049302;28;20960;-81
2023/09/06 01:49:28;;;;;;;0.50;0.30;;;17.70;99.90;;;;;;5040611;28;20455;-81
2023/09/06 01:51:57;;;;;;;0.50;0.30;;;17.70;99.90;;;;;;5057728;28;20436;-81
2023/09/06 01:54:24;;;;;;;0.50;0.30;;;17.60;99.90;;;;;;5057244;28;20527;-81
2023/09/06 01:56:51;;;;;;;0.50;0.40;;;17.60;99.90;;;;;;5057689;28;20439;-81
2023/09/06 01:59:19;;;;;;;0.50;0.40;;;17.60;99.90;;;;;;5057457;28;20937;-80
2023/09/06 02:01:46;;;;;;;0.50;0.30;;;17.60;99.90;;;;;;5057891;28;20455;-81
2023/09/06 02:04:13;;;;;;;0.50;0.30;;;17.60;99.90;;;;;;5048591;28;20469;-80
2023/09/06 02:06:40;;;;;;;0.50;0.30;;;17.50;99.90;;;;;;5045339;28;20441;-80
2023/09/06 02:09:07;;;;;;;0.50;0.30;;;17.50;99.90;;;;;;5053625;28;20438;-81
2023/09/06 02:11:34;;;;;;;0.50;0.30;;;17.50;99.90;;;;;;5057519;28;20450;-81
2023/09/06 02:14:00;;;;;;;0.50;0.30;;;17.40;99.90;;;;;;5050231;28;20491;-81
2023/09/06 02:16:30;;;;;;;0.50;0.40;;;17.40;99.90;;;;;;5055750;28;20929;-80
2023/09/06 02:18:56;;;;;;;0.50;0.30;;;17.40;99.90;;;;;;5057016;28;20535;-81
2023/09/06 02:21:23;;;;;;;0.50;0.30;;;17.40;99.90;;;;;;5046676;28;20912;-81
2023/09/06 02:23:50;;;;;;;0.50;0.40;;;17.40;99.90;;;;;;5050741;28;20965;-81
2023/09/06 02:26:17;;;;;;;0.50;0.37;;;17.40;99.90;;;;;;5048881;28;21006;-81
2023/09/06 02:28:44;;;;;;;0.50;0.40;;;17.40;99.90;;;;;;5056663;28;20451;-81
2023/09/06 02:31:11;;;;;;;0.50;0.40;;;17.40;99.90;;;;;;5056911;28;20436;-80
2023/09/06 02:33:39;;;;;;;0.50;0.30;;;17.40;99.90;;;;;;5052472;28;20550;-80
2023/09/06 02:36:06;;;;;;;0.50;0.33;;;17.30;99.90;;;;;;5053084;28;20446;-80
2023/09/06 02:38:33;;;;;;;0.50;0.30;;;17.30;99.90;;;;;;5048242;28;20454;-78
2023/09/06 02:41:00;;;;;;;0.50;0.40;;;17.20;99.90;;;;;;5056611;28;20477;-81
2023/09/06 02:43:26;;;;;;;0.50;0.40;;;17.30;99.90;;;;;;5047867;28;20466;-81
2023/09/06 02:45:54;;;;;;;0.60;0.50;;;17.20;99.90;;;;;;5048004;28;20443;-81
2023/09/06 02:48:21;;;;;;;0.50;0.30;;;17.20;99.90;;;;;;5048062;28;20810;-81
2023/09/06 02:50:51;;;;;;;0.50;0.30;;;17.10;99.90;;;;;;5048492;28;20561;-80
2023/09/06 02:53:20;;;;;;;0.50;0.30;;;17.10;99.90;;;;;;5056108;28;20463;-80
2023/09/06 02:55:51;;;;;;;0.50;0.30;;;17.00;99.90;;;;;;5048070;28;20502;-79
2023/09/06 02:58:18;;;;;;;0.50;0.40;;;17.00;99.90;;;;;;5047285;28;20483;-80
2023/09/06 03:00:47;;;;;;;0.50;0.30;;;17.00;99.90;;;;;;5047973;28;20479;-82
2023/09/06 03:03:16;;;;;;;0.50;0.30;;;16.90;99.90;;;;;;5055377;28;20502;-81
2023/09/06 03:05:43;;;;;;;0.50;0.30;;;16.90;99.90;;;;;;5056080;28;20534;-81
2023/09/06 03:08:13;;;;;;;0.50;0.30;;;16.90;99.90;;;;;;5047840;28;20918;-81
2023/09/06 03:10:40;;;;;;;0.50;0.30;;;16.90;99.90;;;;;;5055840;28;20434;-81
2023/09/06 03:13:09;;;;;;;0.50;0.30;;;16.90;99.90;;;;;;5055243;28;20544;-80
2023/09/06 03:15:36;;;;;;;0.50;0.40;;;16.80;99.90;;;;;;5048518;28;20455;-80
2023/09/06 03:18:04;;;;;;;0.50;0.30;;;16.80;99.90;;;;;;5055730;28;20453;-81
2023/09/06 03:20:33;;;;;;;0.50;0.30;;;16.80;99.90;;;;;;5047098;28;20566;-81
2023/09/06 03:23:01;;;;;;;1.73;1.63;;;16.70;99.90;;;;;;5046847;28;20463;-81
2023/09/06 03:25:32;;;;;;;0.50;0.30;;;16.70;99.90;;;;;;5053244;28;20495;-80
2023/09/06 03:28:00;;;;;;;0.50;0.37;;;16.70;99.90;;;;;;5036254;28;20451;-81
2023/09/06 03:30:30;;;;;;;0.50;0.37;;;16.70;99.90;;;;;;5045620;28;20437;-80
2023/09/06 03:32:57;;;;;;;0.50;0.40;;;16.70;99.90;;;;;;5047271;28;20984;-81
2023/09/06 03:35:23;;;;;;;0.50;0.40;;;16.70;99.90;;;;;;5046982;28;20454;-81
2023/09/06 03:37:50;;;;;;;0.50;0.30;;;16.70;99.90;;;;;;5055160;28;20538;-80
2023/09/06 03:40:34;;;;;;;0.50;0.30;;;16.70;99.90;;;;;;5045996;28;20490;-80
2023/09/06 03:43:14;;;;;;;0.50;0.40;;;16.60;99.90;;;;;;5054746;28;20887;-80
2023/09/06 03:45:44;;;;;;;0.50;0.30;;;16.60;99.90;;;;;;5047201;28;20528;-80
2023/09/06 03:48:11;;;;;;;0.50;0.40;;;16.60;99.90;;;;;;5049335;28;20484;-79
2023/09/06 03:50:38;;;;;;;0.50;0.30;;;16.60;99.90;;;;;;5057532;28;20439;-81
2023/09/06 03:53:05;;;;;;;0.50;0.30;;;16.60;99.90;;;;;;5048084;28;20466;-80
2023/09/06 03:55:32;;;;;;;0.50;0.40;;;16.60;99.90;;;;;;5048311;28;20444;-79
2023/09/06 03:57:59;;;;;;;0.50;0.40;;;16.60;99.90;;;;;;5055047;28;20504;-81
2023/09/06 04:00:31;;;;;;;0.50;0.30;;;16.60;99.90;;;;;;5046183;28;20484;-80
2023/09/06 04:02:57;;;;;;;0.50;0.30;;;16.60;99.90;;;;;;5046160;28;20524;-81
2023/09/06 04:05:26;;;;;;;0.50;0.40;;;16.50;99.90;;;;;;5038231;28;20446;-80
2023/09/06 04:07:56;;;;;;;0.50;0.40;;;16.60;99.90;;;;;;5054421;28;20496;-80
2023/09/06 04:10:24;;;;;;;0.50;0.40;;;16.60;99.90;;;;;;5048214;28;20438;-79
2023/09/06 04:12:53;;;;;;;0.50;0.30;;;16.60;99.90;;;;;;5057033;28;20530;-78
2023/09/06 04:15:21;;;;;;;0.50;0.40;;;16.60;99.90;;;;;;5057479;28;20814;-80
2023/09/06 04:17:58;;;;;;;0.50;0.30;;;16.60;99.90;;;;;;5043389;28;20515;-79
2023/09/06 04:20:27;;;;;;;0.50;0.40;;;16.60;99.90;;;;;;5059120;28;20484;-79
2023/09/06 04:22:54;;;;;;;0.50;0.40;;;16.60;99.90;;;;;;5058742;28;20569;-79
2023/09/06 04:25:22;;;;;;;0.50;0.30;;;16.80;99.90;;;;;;5058868;28;20438;-79
2023/09/06 04:27:54;;;;;;;0.50;0.40;;;17.00;99.90;;;;;;5051000;28;20462;-79
2023/09/06 04:30:22;;;;;;;0.50;0.30;;;17.10;99.90;;;;;;5051488;28;20444;-78
2023/09/06 04:32:51;;;;;;;0.60;0.40;;;17.20;99.90;;;;;;5036139;28;20550;-79
2023/09/06 04:35:18;;;;;;;0.50;0.40;;;17.30;99.90;;;;;;5049805;28;20455;-80
2023/09/06 04:37:45;;;;;;;0.50;0.40;;;17.30;99.90;;;;;;5053666;28;20435;-80
2023/09/06 04:40:13;;;;;;;0.50;0.40;;;17.30;99.90;;;;;;5054004;28;20529;-80
2023/09/06 04:42:40;;;;;;;1.13;1.03;;;17.30;99.90;;;;;;5044700;28;20468;-80
2023/09/06 04:45:09;;;;;;;8.80;1.80;;;17.20;99.90;;;;;;5045350;28;20451;-79
2023/09/06 04:47:36;;;;;;;0.50;0.30;;;17.20;99.90;;;;;;5053249;28;20450;-81
2023/09/06 04:50:05;;;;;;;0.50;0.30;;;17.10;99.90;;;;;;5042193;28;20526;-82
2023/09/06 04:52:37;;;;;;;0.50;0.30;;;17.10;99.90;;;;;;5048232;28;20463;-82
2023/09/06 04:55:07;;;;;;;0.50;0.40;;;17.10;99.90;;;;;;5048404;28;20461;-82
2023/09/06 04:57:34;;;;;;;0.50;0.33;;;17.10;99.90;;;;;;5054251;28;20439;-82
2023/09/06 05:00:03;;;;;;;0.50;0.30;;;17.20;99.90;;;;;;5046052;28;20455;-81
2023/09/06 05:02:29;;;;;;;0.50;0.30;;;17.20;99.90;;;;;;5045329;28;20482;-80
2023/09/06 05:04:56;;;;;;;0.50;0.30;;;17.10;99.90;;;;;;5054680;28;20812;-80
2023/09/06 05:07:24;;;;;;;0.50;0.40;;;17.10;99.90;;;;;;5040498;28;20446;-80
2023/09/06 05:09:56;;;;;;;0.50;0.30;;;17.10;99.90;;;;;;5034203;28;20539;-80
2023/09/06 05:12:23;;;;;;;0.50;0.30;;;17.10;99.90;;;;;;5058294;28;20463;-81
2023/09/06 05:14:50;;;;;;;2.30;2.20;;;17.10;99.90;;;;;;5049273;28;20439;-79
2023/09/06 05:17:17;;;;;;;0.50;0.30;;;17.10;99.90;;;;;;5047516;28;20443;-80
2023/09/06 05:19:44;;;;;;;0.50;0.30;;;17.10;99.90;;;;;;5055176;28;20443;-79
2023/09/06 05:22:11;;;;;;;0.50;0.30;;;17.10;99.90;;;;;;5053960;28;20485;-80
2023/09/06 05:24:39;;;;;;;0.50;0.30;;;17.20;99.90;;;;;;5053076;28;20437;-80
2023/09/06 05:27:05;;;;;;;0.50;0.30;;;17.20;99.90;;;;;;5047487;28;20494;-80
2023/09/06 05:29:32;;;;;;;0.50;0.30;;;17.20;99.90;;;;;;5054434;28;20906;-79
2023/09/06 05:31:59;;;;;;;0.50;0.40;;;17.20;99.90;;;;;;5050271;28;20432;-79
2023/09/06 05:34:29;;;;;;;0.50;0.50;;;17.30;99.90;;;;;;5051055;28;20930;-80
2023/09/06 05:36:56;;;;;;;0.50;0.40;;;17.20;99.90;;;;;;5040254;28;20526;-81
2023/09/06 05:39:23;;;;;;;2.10;2.00;;;17.30;99.90;;;;;;5047416;28;20447;-79
2023/09/06 05:41:51;;;;;;;0.50;0.40;;;17.40;99.90;;;;;;5054079;28;20478;-79
2023/09/06 05:44:18;;;;;;;0.50;0.30;;;17.60;99.90;;;;;;5053886;28;20473;-79
2023/09/06 05:46:45;;;;;;;0.50;0.30;;;17.70;99.90;;;;;;5038322;28;20942;-79
2023/09/06 05:49:12;;;;;;;0.50;0.30;;;17.80;99.90;;;;;;5056920;28;20537;-81
2023/09/06 05:51:39;;;;;;;0.70;0.70;;;17.80;99.90;;;;;;5047626;28;20944;-79
2023/09/06 05:54:06;;;;;;;0.50;0.30;;;18.00;99.90;;;;;;5047390;28;20464;-80
2023/09/06 05:56:32;;;;;;;0.50;0.30;;;18.20;99.90;;;;;;5054767;28;20443;-80
2023/09/06 05:59:01;;;;;;;0.50;0.40;;;18.30;99.90;;;;;;5055222;28;20444;-82
2023/09/06 06:01:27;;;;;;;0.50;0.40;;;18.50;99.90;;;;;;5047403;28;20489;-81
2023/09/06 06:03:54;;;;;;;3.50;3.40;;;18.80;99.90;;;;;;5046042;28;20459;-81
2023/09/06 06:06:22;;;;;;;0.50;0.30;;;19.00;99.90;;;;;;5048325;28;20536;-81
2023/09/06 06:08:49;;;;;;;0.50;0.30;;;19.20;99.90;;;;;;5054379;28;20950;-81
2023/09/06 06:11:16;;;;;;;0.50;0.30;;;19.40;99.90;;;;;;5055052;28;20454;-81
2023/09/06 06:13:43;;;;;;;0.50;0.30;;;19.70;99.90;;;;;;5054451;28;20463;-81
2023/09/06 06:16:11;;;;;;;0.50;0.30;;;20.00;99.90;;;;;;5050839;28;20524;-83
2023/09/06 06:18:38;;;;;;;0.50;0.30;;;20.30;99.90;;;;;;5053209;28;20455;-81
2023/09/06 06:21:05;;;;;;;0.50;0.30;;;20.60;99.90;;;;;;5056663;28;20832;-81
2023/09/06 06:23:32;;;;;;;0.50;0.37;;;21.00;99.90;;;;;;5055624;28;20459;-81
2023/09/06 06:25:58;;;;;;;0.50;0.40;;;21.40;99.90;;;;;;5044316;28;20441;-82
2023/09/06 06:28:25;;;;;;;0.50;0.37;;;22.00;99.90;;;;;;5051318;28;20442;-81
2023/09/06 06:30:52;;;;;;;0.50;0.30;;;22.60;99.90;;;;;;5054687;28;20442;-80
2023/09/06 06:33:20;;;;;;;0.50;0.40;;;23.10;99.90;;;;;;5054204;28;20472;-81
2023/09/06 06:35:47;;;;;;;1.63;0.70;;;23.60;99.90;;;;;;5049580;28;20445;-81
2023/09/06 06:38:13;;;;;;;0.50;0.30;;;24.00;99.90;;;;;;5053506;28;20479;-81
2023/09/06 06:40:40;;;;;;;0.50;0.30;;;24.60;99.90;;;;;;5049141;28;20452;-81
2023/09/06 06:43:07;;;;;;;0.50;0.40;;;25.10;99.90;;;;;;5058248;28;20473;-81
2023/09/06 06:45:34;;;;;;;0.50;0.30;;;25.30;99.90;;;;;;5050730;28;20443;-81
2023/09/06 06:48:01;;;;;;;0.50;0.30;;;25.60;99.90;;;;;;5047666;28;20456;-81
2023/09/06 06:50:29;;;;;;;0.50;0.40;;;26.10;99.90;;;;;;5054673;28;20438;-82
2023/09/06 06:52:56;;;;;;;1.23;1.13;;;26.60;99.90;;;;;;5058351;28;20502;-82
2023/09/06 06:55:22;;;;;;;0.50;0.30;;;26.70;99.90;;;;;;5059063;28;20442;-81
2023/09/06 06:57:49;;;;;;;0.50;0.30;;;27.20;99.90;;;;;;5058522;28;20547;-82
2023/09/06 07:00:17;;;;;;;0.50;0.30;;;27.30;99.90;;;;;;5050330;28;20451;-81
2023/09/06 07:02:45;;;;;;;0.50;0.30;;;27.20;99.90;;;;;;5049805;28;20520;-81
2023/09/06 07:05:13;;;;;;;0.70;0.70;;;27.50;99.90;;;;;;5052096;28;20443;-81
2023/09/06 07:07:41;;;;;;;0.50;0.30;;;28.00;99.90;;;;;;5058030;28;20505;-81
2023/09/06 07:10:09;;;;;;;0.90;0.90;;;28.00;99.90;;;;;;5049940;28;20448;-81
2023/09/06 07:12:36;;;;;;;0.50;0.30;;;28.20;98.70;;;;;;5058227;28;21041;-81
2023/09/06 07:15:03;;;;;;;0.50;0.30;;;28.30;98.50;;;;;;5041829;28;20436;-81
2023/09/06 07:17:31;;;;;;;0.50;0.30;;;28.70;96.40;;;;;;5058108;28;20499;-81
2023/09/06 07:19:58;;;;;;;0.50;0.30;;;28.80;97.00;;;;;;5048773;28;20445;-81
2023/09/06 07:22:25;;;;;;;0.50;0.30;;;29.00;96.10;;;;;;5048649;28;20545;-82
2023/09/06 07:24:53;;;;;;;0.50;0.30;;;29.40;93.60;;;;;;5057170;28;20447;-81
2023/09/06 07:27:20;;;;;;;0.50;0.30;;;29.60;92.60;;;;;;5049649;28;20462;-82
2023/09/06 07:29:47;;;;;;;0.50;0.30;;;29.90;92.20;;;;;;5056430;28;20820;-82
2023/09/06 07:32:14;;;;;;;0.50;0.30;;;30.30;91.80;;;;;;5050692;28;20450;-81
2023/09/06 07:34:41;;;;;;;0.50;0.30;;;30.80;92.10;;;;;;5049196;28;20439;-81
2023/09/06 07:37:08;;;;;;;0.50;0.30;;;30.40;87.00;;;;;;5054035;28;20546;-82
2023/09/06 07:39:34;;;;;;;0.50;0.30;;;30.40;89.40;;;;;;5054518;28;20433;-81
2023/09/06 07:42:03;;;;;;;0.50;0.40;;;30.80;89.90;;;;;;5057593;28;20473;-81
2023/09/06 07:44:32;;;;;;;1.13;0.73;;;31.10;86.00;;;;;;5051949;28;20457;-81
2023/09/06 07:46:59;;;;;;;0.60;0.40;;;31.00;81.90;;;;;;5057070;28;20444;-81
2023/09/06 07:49:30;;;;;;;0.50;0.30;;;30.00;84.70;;;;;;5058248;28;20455;-82
2023/09/06 07:51:57;;;;;;;0.50;0.30;;;29.60;87.30;;;;;;5055280;28;20440;-81
2023/09/06 07:54:24;;;;;;;0.50;0.30;;;30.20;90.50;;;;;;5045816;28;20446;-81
2023/09/06 07:56:51;;;;;;;0.50;0.40;;;31.20;86.00;;;;;;5057406;28;20796;-81
2023/09/06 07:59:22;;;;;;;0.50;0.30;;;31.80;82.70;;;;;;5057412;28;20446;-82
2023/09/06 08:01:49;;;;;;;0.60;0.60;;;32.00;80.10;;;;;;5057540;28;20995;-82
2023/09/06 08:04:18;;;;;;;0.50;0.30;;;31.30;80.00;;;;;;5057572;28;20788;-81
2023/09/06 08:06:46;;;;;;;1.33;1.23;;;31.30;79.60;;;;;;5047618;28;20899;-82
2023/09/06 08:09:12;;;;;;;0.50;0.30;;;31.40;79.90;;;;;;5051899;28;20887;-81
2023/09/06 08:11:39;;;;;;;0.50;0.30;;;31.90;81.70;;;;;;5057713;28;20445;-82
2023/09/06 08:14:06;;;;;;;0.50;0.30;;;31.70;76.90;;;;;;5040850;28;20823;-82
2023/09/06 08:16:34;;;;;;;0.50;0.30;;;31.70;80.40;;;;;;5057765;28;20507;-82
2023/09/06 08:19:01;;;;;;;0.50;0.30;;;32.60;83.30;;;;;;5049558;28;20453;-81
2023/09/06 08:21:28;;;;;;;6.43;1.10;;;33.30;76.60;;;;;;5051819;28;20448;-82
2023/09/06 08:23:54;;;;;;;1.07;0.97;;;33.30;72.90;;;;;;5056300;28;20475;-82
2023/09/06 08:26:21;;;;;;;0.50;0.30;;;33.20;79.20;;;;;;5052684;28;20468;-82
2023/09/06 08:28:49;;;;;;;0.50;0.30;;;33.10;73.80;;;;;;5039677;28;20849;-82
2023/09/06 08:31:16;;;;;;;0.50;0.30;;;33.10;72.70;;;;;;5058443;28;20452;-81
2023/09/06 08:33:44;;;;;;;0.50;0.30;;;33.40;74.80;;;;;;5058011;28;20470;-81
2023/09/06 08:36:11;;;;;;;0.40;0.30;;;33.80;73.70;;;;;;5042304;28;20437;-82
2023/09/06 08:38:39;;;;;;;0.50;0.30;;;34.50;71.20;;;;;;5057688;28;20517;-82
2023/09/06 08:41:07;;;;;;;0.40;0.30;;;35.30;73.10;;;;;;5057394;28;20956;-82
2023/09/06 08:43:36;;;;;;;0.63;0.50;;;35.80;68.00;;;;;;5057396;28;20481;-82
2023/09/06 08:46:09;;;;;;;0.40;0.30;;;36.10;65.20;;;;;;5046758;28;20457;-82
2023/09/06 08:48:38;;;;;;;0.40;0.30;;;36.50;64.80;;;;;;5037973;28;20941;-82
2023/09/06 08:51:08;;;;;;;0.40;0.30;;;36.80;65.70;;;;;;5056634;28;20439;-82
2023/09/06 08:53:36;;;;;;;0.40;0.30;;;37.10;62.20;;;;;;5056743;28;20514;-82
2023/09/06 08:56:04;;;;;;;0.40;0.30;;;37.00;60.00;;;;;;5055023;28;20444;-82
2023/09/06 08:58:32;;;;;;;0.40;0.30;;;36.80;60.00;;;;;;5050364;28;20438;-81
2023/09/06 09:00:59;;;;;;;0.40;0.30;;;36.70;61.20;;;;;;5048462;28;20529;-80
2023/09/06 09:03:26;;;;;;;0.40;0.30;;;37.00;62.40;;;;;;5049554;28;20478;-82
2023/09/06 09:05:52;;;;;;;0.43;0.40;;;37.50;62.70;;;;;;5048448;28;20438;-82
2023/09/06 09:08:20;;;;;;;0.40;0.30;;;38.00;61.50;;;;;;5053796;28;20448;-82
2023/09/06 09:10:47;;;;;;;0.40;0.30;;;38.10;59.50;;;;;;5045965;28;20449;-82
2023/09/06 09:13:15;;;;;;;0.40;0.30;;;38.50;61.80;;;;;;5045106;28;20466;-82
2023/09/06 09:15:42;;;;;;;0.40;0.30;;;39.00;59.60;;;;;;5045033;28;20528;-82
2023/09/06 09:18:12;;;;;;;0.40;0.40;;;38.90;57.60;;;;;;5058141;28;20992;-82
2023/09/06 09:20:40;;;;;;;0.40;0.40;;;39.10;57.60;;;;;;5057241;28;20469;-82
2023/09/06 09:23:13;;;;;;;0.40;0.30;;;39.20;56.20;;;;;;5047790;28;20514;-82
2023/09/06 09:25:48;;;;;;;0.90;0.90;;;38.70;56.50;;;;;;5040250;28;20447;-82
2023/09/06 09:28:16;;;;;;;0.40;0.30;;;38.50;57.10;;;;;;5041546;28;20444;-82
2023/09/06 09:30:43;;;;;;;0.40;0.30;;;38.70;59.40;;;;;;5057048;28;20449;-81
2023/09/06 09:33:10;;;;;;;0.40;0.30;;;39.20;58.70;;;;;;5046059;28;20454;-83
2023/09/06 09:35:37;;;;;;;0.40;0.30;;;39.60;58.10;;;;;;5044519;28;20533;-82
2023/09/06 09:38:06;;;;;;;0.93;0.83;;;40.00;56.40;;;;;;5047134;28;20528;-82
2023/09/06 09:40:33;;;;;;;0.40;0.30;;;40.10;57.90;;;;;;5046203;28;20453;-82
2023/09/06 09:43:02;;;;;;;0.40;0.30;;;40.10;54.50;;;;;;5045603;28;20498;-82
2023/09/06 09:45:30;;;;;;;0.40;0.30;;;39.20;52.00;;;;;;5054911;28;20438;-81
2023/09/06 09:47:57;;;;;;;0.40;0.30;;;39.40;56.90;;;;;;5046714;28;20528;-81
2023/09/06 09:50:28;;;;;;;0.40;0.30;;;40.00;52.30;;;;;;5046610;28;20469;-83
2023/09/06 09:52:56;;;;;;;0.40;0.30;;;40.10;52.20;;;;;;5054544;28;20521;-82
2023/09/06 09:55:27;;;;;;;0.40;0.30;;;40.30;55.50;;;;;;5057297;28;20440;-82
2023/09/06 09:57:55;;;;;;;0.50;0.50;;;40.60;54.00;;;;;;5054292;28;20444;-81
2023/09/06 10:00:28;;;;;;;1.37;1.27;;;40.50;50.70;;;;;;5047515;28;20433;-82
2023/09/06 10:02:58;;;;;;;0.40;0.30;;;40.30;53.80;;;;;;5054842;28;20481;-82
2023/09/06 10:05:27;;;;;;;0.40;0.40;;;40.00;52.10;;;;;;5056542;28;20831;-82
2023/09/06 10:07:56;;;;;;;0.40;0.30;;;39.50;50.80;;;;;;5056402;28;20471;-81
2023/09/06 10:10:24;;;;;;;0.40;0.30;;;39.30;51.00;;;;;;5052290;28;20445;-82
2023/09/06 10:12:52;;;;;;;0.40;0.30;;;39.60;51.90;;;;;;5052222;28;20504;-82
2023/09/06 10:15:20;;;;;;;0.50;0.50;;;40.20;52.50;;;;;;5046436;28;20516;-83
2023/09/06 10:17:49;;;;;;;0.40;0.30;;;40.30;53.30;;;;;;5061384;28;20511;-84
2023/09/06 10:20:16;;;;;;;0.40;0.30;;;40.50;51.30;;;;;;5052800;28;20448;-82
2023/09/06 10:22:44;;;;;;;0.40;0.30;;;40.80;53.00;;;;;;5061841;28;20548;-82
2023/09/06 10:25:12;;;;;;;0.40;0.30;;;40.90;52.30;;;;;;5061932;28;20433;-82
2023/09/06 10:27:46;;;;;;;0.50;0.50;;;40.60;52.40;;;;;;5052827;28;20476;-82
2023/09/06 10:30:17;;;;;;;0.40;0.30;;;40.30;50.40;;;;;;5061246;28;20804;-83
2023/09/06 10:32:45;;;;;;;0.40;0.30;;;40.60;51.30;;;;;;5061979;28;20460;-82
2023/09/06 10:35:20;;;;;;;0.50;0.50;;;41.00;50.80;;;;;;5061360;28;20449;-83
2023/09/06 10:38:05;;;;;;;0.40;0.40;;;41.30;50.40;;;;;;5062897;28;20445;-83
2023/09/06 10:41:10;;;;;;;0.40;0.30;;;41.40;49.60;;;;;;5049585;28;20963;-82
2023/09/06 10:44:06;;;;;;;0.50;0.40;;;40.90;48.70;;;;;;5050419;28;20481;-83
2023/09/06 10:46:35;;;;;;;0.40;0.30;;;40.80;49.80;;;;;;5052952;28;20452;-82
2023/09/06 10:49:21;;;;;;;0.40;0.30;;;41.00;49.40;;;;;;5055200;28;20505;-82
2023/09/06 10:52:01;;;;;;;0.40;0.30;;;40.40;50.30;;;;;;5060207;28;20437;-80
2023/09/06 10:54:37;;;;;;;0.40;0.30;;;40.20;51.00;;;;;;5060247;28;20492;-81
2023/09/06 10:57:12;;;;;;;0.40;0.30;;;40.30;51.80;;;;;;5061909;28;20469;-81
2023/09/06 10:59:39;;;;;;;0.40;0.30;;;40.40;52.00;;;;;;5044695;28;20482;-81
2023/09/06 11:02:25;;;;;;;0.40;0.30;;;40.50;51.70;;;;;;5057965;28;20458;-81
2023/09/06 11:05:05;;;;;;;0.40;0.30;;;40.80;51.90;;;;;;5059205;28;20941;-80
2023/09/06 11:07:41;;;;;;;0.50;0.40;;;41.30;50.50;;;;;;5059937;28;20848;-82
2023/09/06 11:10:09;;;;;;;0.40;0.30;;;41.50;49.90;;;;;;5059769;28;20895;-81
2023/09/06 11:12:36;;;;;;;0.40;0.30;;;41.50;49.80;;;;;;5061109;28;20477;-81
2023/09/06 11:15:05;;;;;;;0.50;0.50;;;41.50;48.40;;;;;;5057026;28;20441;-81
2023/09/06 11:17:33;;;;;;;0.40;0.30;;;40.90;50.30;;;;;;5051380;28;20442;-81
2023/09/06 11:20:12;;;;;;;0.40;0.30;;;41.40;50.70;;;;;;5055432;28;20478;-80
2023/09/06 11:22:48;;;;;;;0.40;0.30;;;41.70;49.10;;;;;;5048377;28;20479;-80
2023/09/06 11:25:19;;;;;;;0.40;0.30;;;41.40;50.70;;;;;;5054051;28;20524;-80
2023/09/06 11:27:46;;;;;;;0.40;0.30;;;41.70;50.00;;;;;;5050972;28;20433;-81
2023/09/06 11:30:18;;;;;;;0.40;0.30;;;42.00;47.30;;;;;;5055557;28;20438;-81
2023/09/06 11:32:45;;;;;;;0.40;0.30;;;42.10;48.60;;;;;;5056819;28;20523;-82
2023/09/06 11:35:14;;;;;;;0.40;0.30;;;42.20;48.70;;;;;;5040845;28;20439;-81
2023/09/06 11:37:46;;;;;;;0.40;0.30;;;42.10;46.20;;;;;;5056906;28;20441;-81
2023/09/06 11:40:14;;;;;;;0.40;0.30;;;41.90;48.20;;;;;;5056017;28;20442;-81
2023/09/06 11:42:42;;;;;;;0.40;0.30;;;42.00;47.30;;;;;;5057286;28;20529;-82
2023/09/06 11:45:12;;;;;;;0.50;0.50;;;41.80;46.60;;;;;;5055730;28;20524;-81
2023/09/06 11:47:39;;;;;;;0.40;0.30;;;41.70;46.40;;;;;;5056536;28;20499;-81
2023/09/06 11:50:09;;;;;;;0.40;0.30;;;41.10;47.20;;;;;;5056449;28;20488;-81
2023/09/06 11:52:35;;;;;;;0.40;0.30;;;40.00;46.40;;;;;;5056207;28;20481;-80
2023/09/06 11:55:05;;;;;;;0.40;0.30;;;39.80;48.80;;;;;;5055055;28;20468;-80
2023/09/06 11:57:37;;;;;;;0.40;0.30;;;40.20;49.30;;;;;;5056318;28;20437;-81
2023/09/06 12:00:17;;;;;;;0.73;0.50;;;40.70;46.60;;;;;;5056522;28;20446;-80
2023/09/06 12:02:47;;;;;;;0.40;0.30;;;40.40;44.80;;;;;;5057430;28;20457;-81
2023/09/06 12:05:16;;;;;;;0.40;0.30;;;39.80;44.80;;;;;;5055080;28;20448;-80
2023/09/06 12:07:44;;;;;;;0.40;0.30;;;39.60;50.60;;;;;;5055385;28;20442;-82
2023/09/06 12:10:18;;;;;;;0.40;0.30;;;39.80;49.60;;;;;;5055057;28;20446;-81
2023/09/06 12:12:45;;;;;;;0.40;0.30;;;40.50;49.40;;;;;;5055670;28;20483;-81
2023/09/06 12:15:14;;;;;;;0.40;0.30;;;41.30;47.00;;;;;;5056911;28;20861;-81
2023/09/06 12:17:42;;;;;;;0.80;0.73;;;41.70;46.00;;;;;;5057802;28;20433;-81
2023/09/06 12:20:15;;;;;;;0.40;0.30;;;41.40;43.90;;;;;;5058901;28;20544;-81
2023/09/06 12:22:43;;;;;;;0.50;0.50;;;40.20;46.40;;;;;;5057228;28;20457;-81
2023/09/06 12:25:10;;;;;;;0.40;0.30;;;40.20;46.70;;;;;;5057505;28;20532;-81
2023/09/06 12:27:38;;;;;;;0.40;0.30;;;40.40;46.50;;;;;;5055610;28;20440;-81
2023/09/06 12:30:05;;;;;;;0.40;0.30;;;40.40;45.80;;;;;;5056690;28;20438;-81
2023/09/06 12:32:34;;;;;;;0.40;0.30;;;40.80;45.50;;;;;;5039411;28;20468;-81
2023/09/06 12:35:00;;;;;;;0.40;0.30;;;41.10;46.10;;;;;;5054316;28;20477;-81
2023/09/06 12:37:30;;;;;;;0.50;0.50;;;40.50;46.00;;;;;;5054528;28;20480;-81
2023/09/06 12:39:57;;;;;;;0.40;0.30;;;40.60;46.40;;;;;;5054446;28;20433;-80
2023/09/06 12:42:24;;;;;;;0.40;0.30;;;40.90;47.60;;;;;;5055218;28;20852;-82
2023/09/06 12:44:52;;;;;;;0.40;0.30;;;40.40;46.30;;;;;;5054871;28;20434;-79
2023/09/06 12:47:19;;;;;;;0.40;0.30;;;40.40;47.80;;;;;;5055324;28;20486;-81
2023/09/06 12:49:45;;;;;;;0.40;0.30;;;40.90;46.90;;;;;;5057338;28;20437;-81
2023/09/06 12:52:16;;;;;;;1.07;0.90;;;41.10;47.20;;;;;;5055504;28;20462;-81
2023/09/06 12:54:42;;;;;;;0.40;0.30;;;40.90;44.60;;;;;;5054907;28;20569;-82